Terminal Aerodrome Forecast
Issued by NWS

Home | Current Version | Previous Version | Text Only | Print | Product List | Glossary On
Versions: 1 2 3 4 5 6 7 8 9 10 11 12 13 14 15 16 17 18 19 20 21
000
FTUS43 KGRR 041800 AAA
TAFAZO
TAF AMD
KAZO 041810Z 0418/0518 32015KT P6SM VCSH BKN029
     FM041900 31014G20KT P6SM -SHSN OVC035
     FM050300 30008KT P6SM BKN035
     FM050800 32005KT 5SM -SHSN OVC025
     FM051000 32004KT P6SM BKN035=

USA.gov is the U.S. government's official web portal to all federal, state and local government web resources and services.